Time;durP1;ratioP1;P1;durP2;ratioP2;P2;SDS_P1;SDS_P2;PMS_P1;PMS_P2;Temp;Humidity;BMP_temperature;BMP_pressure;BME280_temperature;BME280_humidity;BME280_pressure;Samples;Min_cycle;Max_cycle;Signal;HPM_P1;HPM_P2
2022/05/26 00:00:10;;;;;;;9.00;6.00;;;;;;;-143.84;99.18;43988.63;5091203;28;20481;-74
2022/05/26 00:02:37;;;;;;;9.20;5.30;;;;;;;-143.84;99.12;43984.81;5090654;28;20439;-74
2022/05/26 00:05:05;;;;;;;6.73;5.47;;;;;;;-143.84;99.25;43977.19;5090716;28;20435;-74
2022/05/26 00:07:32;;;;;;;9.17;6.20;;;;;;;-143.84;98.80;44001.94;5090511;28;20434;-74
2022/05/26 00:10:00;;;;;;;13.77;7.87;;;;;;;-143.84;98.83;44028.59;5090661;28;20436;-74
2022/05/26 00:12:27;;;;;;;7.37;6.03;;;;;;;-143.84;98.79;44019.06;5090854;28;20433;-74
2022/05/26 00:14:55;;;;;;;10.70;7.40;;;;;;;-143.84;98.94;44020.97;5090745;28;20477;-74
2022/05/26 00:17:22;;;;;;;5.80;5.30;;;;;;;-143.84;98.83;44034.31;5091260;28;20447;-74
2022/05/26 00:19:50;;;;;;;6.10;5.03;;;;;;;-143.84;98.83;44024.78;5090777;28;21038;-74
2022/05/26 00:22:17;;;;;;;8.23;6.00;;;;;;;-143.84;99.08;43981.00;5090869;28;20914;-74
2022/05/26 00:24:44;;;;;;;8.93;7.33;;;;;;;-143.84;99.25;43946.75;5090592;28;20546;-74
2022/05/26 00:27:11;;;;;;;9.10;6.47;;;;;;;-143.84;99.24;43948.63;5090606;28;20842;-73
2022/05/26 00:29:39;;;;;;;11.60;6.30;;;;;;;-143.84;99.09;43958.16;5089639;28;20920;-73
2022/05/26 00:32:09;;;;;;;12.70;5.67;;;;;;;-143.84;99.51;43902.97;5090635;28;20507;-73
2022/05/26 00:34:36;;;;;;;6.83;5.03;;;;;;;-143.84;100.00;43828.72;5090913;28;20449;-77
2022/05/26 00:37:08;;;;;;;5.67;5.07;;;;;;;-143.84;100.00;43794.47;5091238;28;20463;-77
2022/05/26 00:39:35;;;;;;;9.10;5.80;;;;;;;-143.84;100.00;43826.81;5091299;28;20477;-76
2022/05/26 00:42:04;;;;;;;7.67;5.03;;;;;;;-143.84;100.00;43798.25;5090832;28;20442;-77
2022/05/26 00:44:34;;;;;;;6.93;5.53;;;;;;;-143.84;100.00;43788.75;5090861;28;20597;-76
2022/05/26 00:47:07;;;;;;;5.57;5.13;;;;;;;-143.84;100.00;43783.03;5090744;28;20952;-76
2022/05/26 00:49:43;;;;;;;12.47;6.23;;;;;;;-143.84;100.00;43771.63;5090882;28;20442;-76
2022/05/26 00:52:14;;;;;;;6.90;5.60;;;;;;;-143.84;100.00;43741.16;5090910;28;20440;-77
2022/05/26 00:54:43;;;;;;;8.67;5.50;;;;;;;-143.84;100.00;43784.94;5101467;28;20507;-76
2022/05/26 00:57:15;;;;;;;15.37;4.70;;;;;;;-143.84;100.00;43788.75;5111149;28;20441;-76
2022/05/26 00:59:47;;;;;;;6.90;6.20;;;;;;;-143.84;100.00;43807.78;5110842;28;20438;-76
2022/05/26 01:02:19;;;;;;;12.20;4.90;;;;;;;-143.84;100.00;43807.78;5110694;27;20438;-76
2022/05/26 01:04:53;;;;;;;12.80;5.47;;;;;;;-143.84;100.00;43758.28;5110654;28;20968;-76
2022/05/26 01:07:24;;;;;;;6.50;5.77;;;;;;;-143.84;100.00;43796.34;5110852;28;21025;-76
2022/05/26 01:09:51;;;;;;;10.53;6.00;;;;;;;-143.84;100.00;43767.81;5090538;28;20453;-76
2022/05/26 01:12:19;;;;;;;20.63;5.30;;;;;;;-143.84;100.00;43765.91;5109443;28;20435;-76
2022/05/26 01:14:49;;;;;;;8.57;5.10;;;;;;;-143.84;100.00;43754.47;5109421;28;20487;-76
2022/05/26 01:17:27;;;;;;;7.20;5.53;;;;;;;-143.84;100.00;43754.47;5110095;28;20940;-76
2022/05/26 01:20:12;;;;;;;11.07;6.10;;;;;;;-143.84;100.00;43760.19;5108990;28;20834;-76
2022/05/26 01:22:59;;;;;;;12.27;5.17;;;;;;;-143.84;100.00;43765.91;5090561;28;20444;-77
2022/05/26 01:25:50;;;;;;;6.87;6.27;;;;;;;-143.84;100.00;43737.34;5090135;28;20501;-77
2022/05/26 01:28:33;;;;;;;15.87;5.67;;;;;;;-143.84;100.00;43737.34;5089956;28;20435;-76
2022/05/26 01:31:16;;;;;;;9.93;6.20;;;;;;;-143.84;100.00;43764.00;5089980;28;20438;-76
2022/05/26 01:33:51;;;;;;;9.23;6.07;;;;;;;-143.84;100.00;43775.41;5090363;28;20435;-76
2022/05/26 01:36:30;;;;;;;11.90;5.47;;;;;;;-143.84;100.00;43777.31;5090354;28;20427;-77
2022/05/26 01:39:07;;;;;;;6.47;5.80;;;;;;;-143.84;100.00;43777.31;5089994;28;20432;-76
2022/05/26 01:41:49;;;;;;;10.27;6.00;;;;;;;-143.84;100.00;43748.78;5089908;28;20523;-76
2022/05/26 01:44:29;;;;;;;16.60;6.30;;;;;;;-143.84;100.00;43790.66;5089936;28;20486;-76
2022/05/26 01:47:02;;;;;;;7.30;5.47;;;;;;;-143.84;100.00;43815.41;5089958;28;20439;-76
2022/05/26 01:49:34;;;;;;;12.90;6.50;;;;;;;-143.84;100.00;43773.53;5103060;28;20970;-76
2022/05/26 01:52:08;;;;;;;8.80;6.30;;;;;;;-143.84;100.00;43781.13;5110266;28;20469;-76
2022/05/26 01:54:42;;;;;;;7.67;6.73;;;;;;;-143.84;100.00;43781.13;5095303;28;20848;-76
2022/05/26 01:57:15;;;;;;;11.90;6.07;;;;;;;-143.84;100.00;43781.13;5089865;28;20508;-76
2022/05/26 01:59:47;;;;;;;7.43;5.73;;;;;;;-143.84;100.00;43756.38;5089358;28;20451;-76
2022/05/26 02:02:22;;;;;;;16.53;5.40;;;;;;;-143.84;100.00;43769.72;5089498;28;20440;-76
2022/05/26 02:04:53;;;;;;;11.53;5.53;;;;;;;-143.84;100.00;43819.19;5089730;28;20519;-77
2022/05/26 02:07:26;;;;;;;7.33;5.53;;;;;;;-143.84;100.00;43775.41;5089614;28;20446;-76
2022/05/26 02:09:56;;;;;;;9.67;6.00;;;;;;;-143.84;100.00;43792.56;5107483;28;20444;-76
2022/05/26 02:12:29;;;;;;;5.63;5.13;;;;;;;-143.84;100.00;43775.41;5089672;28;20439;-77
2022/05/26 02:15:03;;;;;;;10.33;6.10;;;;;;;-143.84;100.00;43756.38;5089298;28;20474;-76
2022/05/26 02:17:36;;;;;;;8.93;5.83;;;;;;;-143.84;100.00;43779.22;5105270;28;20538;-76
2022/05/26 02:20:07;;;;;;;7.10;5.37;;;;;;;-143.84;100.00;43805.88;5109852;28;20494;-76
2022/05/26 02:22:41;;;;;;;8.90;5.97;;;;;;;-143.84;100.00;43817.31;5109594;28;20966;-76
2022/05/26 02:25:11;;;;;;;15.00;5.70;;;;;;;-143.84;100.00;43792.56;5109624;28;20493;-76
2022/05/26 02:27:39;;;;;;;10.77;6.00;;;;;;;-143.84;100.00;43811.59;5109422;28;20448;-77
2022/05/26 02:30:08;;;;;;;6.07;5.27;;;;;;;-143.84;100.00;43807.78;5109995;28;20511;-76
2022/05/26 02:32:39;;;;;;;7.37;5.70;;;;;;;-143.84;100.00;43826.81;5109906;28;21395;-76
2022/05/26 02:35:11;;;;;;;7.07;5.60;;;;;;;-143.84;100.00;43840.13;5109237;28;20446;-76
2022/05/26 02:37:40;;;;;;;5.40;5.00;;;;;;;-143.84;99.98;43885.81;5108787;28;20487;-77
2022/05/26 02:40:10;;;;;;;7.60;5.40;;;;;;;-143.84;99.97;43885.81;5109702;28;20438;-76
2022/05/26 02:42:41;;;;;;;13.90;5.60;;;;;;;-143.84;99.76;43883.91;5109575;28;20438;-76
2022/05/26 02:45:09;;;;;;;7.20;5.60;;;;;;;-143.84;99.29;43982.91;5109470;28;20538;-76
2022/05/26 02:47:52;;;;;;;6.00;5.50;;;;;;;-143.84;99.25;43973.38;5109248;28;20464;-76
2022/05/26 02:50:45;;;;;;;9.33;6.20;;;;;;;-143.84;99.49;43956.25;5109244;28;20448;-76
2022/05/26 02:53:19;;;;;;;8.70;6.80;;;;;;;-143.84;99.37;43956.25;5112176;28;20442;-76
2022/05/26 02:55:59;;;;;;;8.07;5.27;;;;;;;-143.84;99.59;43950.53;5112457;28;20462;-76
2022/05/26 02:58:36;;;;;;;7.17;5.90;;;;;;;-143.84;99.85;43975.28;5105627;28;20439;-74
2022/05/26 03:01:09;;;;;;;10.27;5.73;;;;;;;-143.84;99.63;43961.97;5103545;28;20794;-74
2022/05/26 03:03:43;;;;;;;6.80;5.40;;;;;;;-143.84;99.73;43906.75;5112834;28;20446;-74
2022/05/26 03:06:16;;;;;;;6.90;6.30;;;;;;;-143.84;100.00;43891.53;5112865;28;20508;-74
2022/05/26 03:08:45;;;;;;;13.83;7.60;;;;;;;-143.84;100.00;43887.72;5105100;28;20463;-73
2022/05/26 03:11:18;;;;;;;9.27;6.73;;;;;;;-143.84;100.00;43956.25;5102922;28;20455;-74
2022/05/26 03:13:45;;;;;;;7.53;6.83;;;;;;;-143.84;100.00;43908.66;5110888;28;20767;-74
2022/05/26 03:16:12;;;;;;;17.83;8.10;;;;;;;-143.84;100.00;43870.59;5106340;28;20446;-73
2022/05/26 03:18:41;;;;;;;12.70;7.03;;;;;;;-143.84;100.00;43840.13;5094822;27;20436;-74
2022/05/26 03:21:09;;;;;;;10.77;7.83;;;;;;;-143.84;100.00;43796.34;5106700;28;20439;-73
2022/05/26 03:23:37;;;;;;;9.23;7.90;;;;;;;-143.84;100.00;43790.66;5096855;28;21198;-74
2022/05/26 03:26:06;;;;;;;9.73;7.90;;;;;;;-143.84;100.00;43883.91;5108376;28;20474;-78
2022/05/26 03:28:33;;;;;;;9.50;7.33;;;;;;;-143.84;100.00;43832.53;5106004;28;20458;-73
2022/05/26 03:31:01;;;;;;;17.53;7.90;;;;;;;-143.84;100.00;43802.06;5100215;28;20766;-73
2022/05/26 03:40:45;;;;;;;11.67;8.27;;;;;;;-143.84;100.00;43762.09;5107473;28;20433;-73
2022/05/26 03:41:45;;;;;;;9.90;8.90;;;;;;;-143.84;100.00;43807.78;5107947;28;20434;-74
2022/05/26 03:44:13;;;;;;;10.80;8.63;;;;;;;-143.84;100.00;43773.53;5099913;28;20530;-74
2022/05/26 03:46:40;;;;;;;18.20;9.50;;;;;;;-143.84;100.00;43794.47;5101395;27;20443;-73
2022/05/26 03:49:07;;;;;;;18.30;8.87;;;;;;;-143.84;100.00;43790.66;5104519;28;20491;-72
2022/05/26 03:51:36;;;;;;;16.93;9.70;;;;;;;-143.84;100.00;43796.34;5096849;28;20944;-72
2022/05/26 03:54:03;;;;;;;14.27;8.90;;;;;;;-143.84;100.00;43792.56;5095692;28;20490;-73
2022/05/26 03:56:30;;;;;;;17.87;10.10;;;;;;;-143.84;100.00;43786.84;5103811;28;21171;-77
2022/05/26 03:58:57;;;;;;;17.50;10.60;;;;;;;-143.84;100.00;43803.97;5090202;28;20443;-72
2022/05/26 04:01:24;;;;;;;10.10;9.03;;;;;;;-143.84;100.00;43803.97;5091322;28;20443;-72
2022/05/26 04:03:52;;;;;;;11.50;9.20;;;;;;;-143.84;100.00;43802.06;5091726;28;20446;-73
2022/05/26 04:06:19;;;;;;;10.10;9.23;;;;;;;-143.84;100.00;43815.41;5108733;28;20432;-74
2022/05/26 04:08:47;;;;;;;12.80;9.43;;;;;;;-143.84;100.00;43805.88;5113021;28;20892;-74
2022/05/26 04:11:15;;;;;;;12.77;11.23;;;;;;;-143.84;100.00;43800.16;5111679;28;20483;-74
2022/05/26 04:13:42;;;;;;;12.70;9.90;;;;;;;-143.84;100.00;43803.97;5111744;28;20653;-74
2022/05/26 04:16:09;;;;;;;10.50;9.47;;;;;;;-143.84;100.00;43769.72;5111837;27;20446;-74
2022/05/26 04:18:37;;;;;;;16.13;10.53;;;;;;;-143.84;100.00;43784.94;5112115;28;20488;-74
2022/05/26 04:21:07;;;;;;;17.43;9.17;;;;;;;-143.84;100.00;43790.66;5112002;28;20450;-74
2022/05/26 04:23:35;;;;;;;15.17;9.33;;;;;;;-143.84;100.00;43771.63;5111264;28;20451;-74
2022/05/26 04:26:04;;;;;;;15.93;9.63;;;;;;;-143.84;100.00;43767.81;5112006;27;20869;-74
2022/05/26 04:28:32;;;;;;;10.27;9.27;;;;;;;-143.84;100.00;43784.94;5110950;28;20486;-74
2022/05/26 04:31:00;;;;;;;15.40;9.60;;;;;;;-143.84;100.00;43813.50;5112068;28;20507;-74
2022/05/26 04:33:28;;;;;;;21.50;12.77;;;;;;;-143.84;100.00;43792.56;5111927;27;20504;-74
2022/05/26 04:35:56;;;;;;;19.57;11.13;;;;;;;-143.84;100.00;43775.41;5111020;28;20462;-74
2022/05/26 04:38:24;;;;;;;12.13;11.10;;;;;;;-143.84;100.00;43800.16;5112043;28;20526;-74
2022/05/26 04:40:57;;;;;;;13.43;11.90;;;;;;;-143.84;100.00;43843.94;5110650;28;20450;-73
2022/05/26 04:43:26;;;;;;;13.53;10.67;;;;;;;-143.84;100.00;43849.66;5111922;28;20438;-73
2022/05/26 04:45:53;;;;;;;12.53;11.20;;;;;;;-143.84;99.92;43872.50;5111788;28;20580;-74
2022/05/26 04:48:21;;;;;;;14.80;12.47;;;;;;;-143.84;99.78;43906.75;5112219;28;20956;-73
2022/05/26 04:50:49;;;;;;;12.43;11.13;;;;;;;-143.84;99.73;43897.25;5111984;28;20431;-74
2022/05/26 04:53:17;;;;;;;13.90;10.93;;;;;;;-143.84;99.51;43961.97;5111885;28;21170;-73
2022/05/26 04:55:44;;;;;;;11.10;10.07;;;;;;;-143.84;98.28;44169.47;5091672;28;20851;-74
2022/05/26 04:58:12;;;;;;;11.20;10.00;;;;;;;-143.84;97.31;44363.63;5091418;28;20440;-74
2022/05/26 05:00:41;;;;;;;12.73;11.47;;;;;;;-143.84;97.28;44396.00;5091560;28;20837;-74
2022/05/26 05:03:08;;;;;;;11.77;10.60;;;;;;;-143.84;96.48;44534.97;5091329;28;21119;-74
2022/05/26 05:05:37;;;;;;;10.53;9.43;;;;;;;-143.84;95.45;44666.34;5110367;28;20528;-72
2022/05/26 05:08:04;;;;;;;16.00;11.60;;;;;;;-143.84;94.77;44753.94;5110313;28;20457;-74
2022/05/26 05:10:31;;;;;;;40.27;29.50;;;;;;;-143.84;93.19;44847.22;5108596;28;20453;-74
2022/05/26 05:12:59;;;;;;;12.60;11.40;;;;;;;-143.84;93.40;44843.44;5113136;28;20423;-74
2022/05/26 05:15:32;;;;;;;10.80;9.80;;;;;;;-143.84;92.12;44917.69;5111236;28;20516;-74
2022/05/26 05:18:01;;;;;;;11.70;9.43;;;;;;;-143.84;91.15;44940.53;5111624;28;20423;-74
2022/05/26 05:20:29;;;;;;;12.40;8.70;;;;;;;-143.84;90.22;45026.22;5111081;28;20865;-74
2022/05/26 05:23:01;;;;;;;11.70;9.30;;;;;;;-143.84;90.13;44971.00;5111856;28;20443;-74
2022/05/26 05:25:33;;;;;;;10.53;9.43;;;;;;;-143.84;90.55;44974.81;5111689;28;20482;-74
2022/05/26 05:28:03;;;;;;;12.73;10.10;;;;;;;-143.84;89.25;45003.38;5111895;28;20504;-74
2022/05/26 05:30:35;;;;;;;11.37;7.20;;;;;;;-143.84;88.64;44995.75;5111804;28;20432;-74
2022/05/26 05:33:09;;;;;;;16.03;7.20;;;;;;;-143.84;88.96;45014.78;5111853;28;20975;-74
2022/05/26 05:35:43;;;;;;;10.93;7.63;;;;;;;-143.84;89.10;45003.38;5111922;28;20496;-74
2022/05/26 05:38:10;;;;;;;12.83;8.37;;;;;;;-143.84;89.55;45009.09;5111691;28;20432;-75
2022/05/26 05:40:38;;;;;;;11.33;8.73;;;;;;;-143.84;88.76;45001.47;5111697;28;20438;-74
2022/05/26 05:43:06;;;;;;;11.10;9.37;;;;;;;-143.84;88.31;45010.97;5111798;28;20439;-74
2022/05/26 05:45:33;;;;;;;16.27;9.07;;;;;;;-143.84;87.93;45007.19;5111373;28;20896;-74
2022/05/26 05:48:00;;;;;;;11.03;8.17;;;;;;;-143.84;87.41;45045.25;5111397;28;20423;-74
2022/05/26 05:50:29;;;;;;;10.50;7.53;;;;;;;-143.84;87.71;45010.97;5111433;28;20502;-74
2022/05/26 05:52:56;;;;;;;13.70;8.60;;;;;;;-143.84;87.65;44990.03;5111253;28;21199;-74
2022/05/26 05:55:24;;;;;;;13.17;8.57;;;;;;;-143.84;87.30;45010.97;5110207;28;20515;-74
2022/05/26 05:57:51;;;;;;;24.73;9.87;;;;;;;-143.84;87.14;44990.03;5111068;28;20435;-74
2022/05/26 06:00:21;;;;;;;15.57;9.70;;;;;;;-143.84;85.32;45022.41;5107357;28;20454;-74
2022/05/26 06:02:48;;;;;;;11.67;8.40;;;;;;;-143.84;84.66;45043.34;5106537;28;20463;-74
2022/05/26 06:05:16;;;;;;;34.30;26.23;;;;;;;-143.84;83.09;45041.44;5113225;28;20463;-72
2022/05/26 06:07:44;;;;;;;64.50;50.70;;;;;;;-143.84;81.81;45016.69;5114146;28;20435;-75
2022/05/26 06:10:13;;;;;;;7.50;6.90;;;;;;;-143.84;80.21;45033.84;5111266;28;20438;-73
2022/05/26 06:12:40;;;;;;;7.67;6.80;;;;;;;-143.84;79.58;45005.28;5111143;28;20439;-73
2022/05/26 06:15:09;;;;;;;7.10;4.30;;;;;;;-143.84;75.22;45037.66;5110637;28;20474;-73
2022/05/26 06:17:36;;;;;;;5.00;4.50;;;;;;;-143.84;74.75;45037.66;5110808;28;20924;-72
2022/05/26 06:20:04;;;;;;;11.93;5.43;;;;;;;-143.84;75.20;45030.03;5110811;28;20453;-73
2022/05/26 06:22:32;;;;;;;9.10;5.00;;;;;;;-143.84;75.21;45026.22;5110429;28;20439;-73
2022/05/26 06:25:02;;;;;;;5.63;4.90;;;;;;;-143.84;74.22;45064.31;5109794;28;20843;-73
2022/05/26 06:30:17;;;;;;;8.10;4.70;;;;;;;-143.84;75.52;45064.31;5094498;28;20554;-73
2022/05/26 06:38:16;;;;;;;6.27;5.63;;;;;;;-143.84;74.82;45035.75;5094350;28;20434;-73
2022/05/26 06:40:45;;;;;;;5.30;4.40;;;;;;;-143.84;74.54;45050.97;5094287;28;20501;-73
2022/05/26 06:43:14;;;;;;;5.17;4.20;;;;;;;-143.84;74.34;45047.16;5094021;28;20795;-73
2022/05/26 06:45:42;;;;;;;6.07;4.30;;;;;;;-143.84;73.45;45022.41;5094595;28;20888;-72
2022/05/26 06:48:10;;;;;;;26.83;20.33;;;;;;;-143.84;73.71;45047.16;5096994;28;20432;-71
2022/05/26 06:50:37;;;;;;;20.83;17.53;;;;;;;-143.84;74.30;45035.75;5096132;28;20442;-72
2022/05/26 06:53:04;;;;;;;5.60;5.10;;;;;;;-143.84;73.45;45028.13;5093502;28;20462;-72
2022/05/26 06:55:31;;;;;;;7.03;4.67;;;;;;;-143.84;73.08;45039.53;5097830;28;20435;-73
2022/05/26 06:58:00;;;;;;;14.03;4.93;;;;;;;-143.84;72.92;45033.84;5113155;28;20496;-73
2022/05/26 07:00:27;;;;;;;12.70;5.30;;;;;;;-143.84;71.86;45028.13;5112729;28;20439;-73
2022/05/26 07:02:55;;;;;;;5.40;4.90;;;;;;;-143.84;71.20;45028.13;5113364;28;20477;-73
2022/05/26 07:05:22;;;;;;;6.57;4.50;;;;;;;-143.84;71.08;45039.53;5112958;28;20485;-73
2022/05/26 07:07:49;;;;;;;14.60;5.73;;;;;;;-143.84;71.62;45052.88;5113036;28;20495;-73
2022/05/26 07:10:16;;;;;;;8.10;5.47;;;;;;;-143.84;71.20;45039.53;5113230;28;20875;-73
2022/05/26 07:12:43;;;;;;;6.23;5.47;;;;;;;-143.84;70.55;45020.50;5113030;28;20439;-73
2022/05/26 07:15:13;;;;;;;8.60;5.50;;;;;;;-143.84;70.37;45010.97;5112320;28;20556;-73
2022/05/26 07:17:40;;;;;;;8.30;5.57;;;;;;;-143.84;69.79;44999.56;5112756;28;20873;-73
2022/05/26 07:20:09;;;;;;;7.50;6.40;;;;;;;-143.84;67.98;45026.22;5112580;28;20500;-73
2022/05/26 07:22:36;;;;;;;5.87;5.20;;;;;;;-143.84;68.38;45003.38;5113246;27;20484;-71
2022/05/26 07:25:04;;;;;;;20.13;17.33;;;;;;;-143.84;68.87;45018.59;5115040;28;20486;-71
2022/05/26 07:27:32;;;;;;;19.93;13.93;;;;;;;-143.84;68.05;45022.41;5117512;28;20883;-72
2022/05/26 07:30:00;;;;;;;5.80;5.20;;;;;;;-143.84;66.52;45022.41;5114351;28;20438;-71
2022/05/26 07:32:28;;;;;;;6.20;5.10;;;;;;;-143.84;66.26;45026.22;5114026;28;20441;-71
2022/05/26 07:34:56;;;;;;;10.53;4.30;;;;;;;-143.84;65.96;45012.88;5114154;28;20436;-71
2022/05/26 07:42:55;;;;;;;7.57;4.80;;;;;;;-143.84;65.69;45016.69;5100889;28;20450;-71
2022/05/26 07:45:23;;;;;;;9.57;4.60;;;;;;;-143.84;66.27;45009.09;5105689;28;20506;-71
2022/05/26 07:47:52;;;;;;;15.57;8.33;;;;;;;-143.84;67.68;45018.59;5114196;28;20427;-72
2022/05/26 07:50:20;;;;;;;21.43;11.77;;;;;;;-143.84;68.90;45010.97;5112606;28;20447;-72
2022/05/26 07:52:48;;;;;;;14.33;9.03;;;;;;;-143.84;68.26;45024.31;5112421;28;20443;-73
2022/05/26 07:55:16;;;;;;;19.73;11.17;;;;;;;-143.84;70.44;45014.78;5101966;27;20546;-76
2022/05/26 07:57:43;;;;;;;23.00;11.13;;;;;;;-143.84;68.50;45001.47;5093990;28;20447;-74
2022/05/26 08:00:11;;;;;;;31.97;21.67;;;;;;;-143.84;67.41;44995.75;5094424;28;20435;-75
2022/05/26 08:02:39;;;;;;;13.60;9.50;;;;;;;-143.84;65.77;45003.38;5094723;28;20438;-74
2022/05/26 08:05:10;;;;;;;27.73;10.67;;;;;;;-143.84;64.37;45009.09;5091406;28;20949;-73
2022/05/26 08:07:41;;;;;;;20.37;11.80;;;;;;;-143.84;64.44;45003.38;5091646;28;20447;-73
2022/05/26 08:10:10;;;;;;;14.50;8.93;;;;;;;-143.84;64.51;45020.50;5104449;28;20587;-74
2022/05/26 08:12:37;;;;;;;14.20;8.90;;;;;;;-143.84;63.13;44976.72;5111021;28;20523;-74
2022/05/26 08:15:05;;;;;;;25.13;9.17;;;;;;;-143.84;62.78;44965.28;5110922;28;20483;-74
2022/05/26 08:17:32;;;;;;;14.47;7.67;;;;;;;-143.84;61.29;44974.81;5111454;27;20431;-73
2022/05/26 08:20:00;;;;;;;10.43;6.57;;;;;;;-143.84;58.18;44976.72;5112265;28;20492;-74
2022/05/26 08:22:28;;;;;;;12.30;5.90;;;;;;;-143.84;59.41;44997.66;5111290;28;20516;-74
2022/05/26 08:24:57;;;;;;;16.20;6.13;;;;;;;-143.84;56.25;44948.16;5111162;28;20465;-74
2022/05/26 08:27:25;;;;;;;10.00;5.27;;;;;;;-143.84;57.81;44980.53;5110937;28;20474;-74
2022/05/26 08:29:54;;;;;;;9.60;5.43;;;;;;;-143.84;56.57;44991.94;5110594;28;20439;-74
2022/05/26 08:32:22;;;;;;;10.00;5.93;;;;;;;-143.84;57.70;44993.84;5110543;28;20501;-74
2022/05/26 08:34:50;;;;;;;8.37;5.47;;;;;;;-143.84;55.63;44963.38;5110867;28;20435;-73
2022/05/26 08:37:20;;;;;;;8.90;6.40;;;;;;;-143.84;57.56;44997.66;5110852;28;20435;-74
2022/05/26 08:39:49;;;;;;;11.80;5.20;;;;;;;-143.84;56.52;44993.84;5110853;28;20447;-75
2022/05/26 08:42:20;;;;;;;8.57;5.90;;;;;;;-143.84;57.65;44967.19;5110651;28;20451;-74
2022/05/26 08:44:48;;;;;;;12.87;6.10;;;;;;;-143.84;57.42;44955.75;5100928;28;21091;-74
2022/05/26 08:47:17;;;;;;;9.03;6.80;;;;;;;-143.84;56.30;44972.91;5110434;28;20482;-75
2022/05/26 08:49:51;;;;;;;11.67;8.10;;;;;;;-143.84;55.79;44967.19;5110354;28;20488;-74
2022/05/26 08:52:23;;;;;;;29.80;21.30;;;;;;;-143.84;55.46;44980.53;5112865;28;20876;-72
2022/05/26 08:55:01;;;;;;;13.93;7.87;;;;;;;-143.84;53.67;44974.81;5098739;28;20864;-74
2022/05/26 08:57:32;;;;;;;9.47;8.57;;;;;;;-143.84;55.28;44976.72;5090325;28;20448;-74
2022/05/26 08:59:59;;;;;;;13.37;8.90;;;;;;;-143.84;54.44;44931.00;5090392;28;20446;-75
2022/05/26 09:02:33;;;;;;;13.67;5.20;;;;;;;-143.84;54.56;44963.38;5090454;28;20508;-74
2022/05/26 09:05:02;;;;;;;13.07;7.30;;;;;;;-143.84;57.10;44963.38;5090425;28;20857;-74
2022/05/26 09:13:12;;;;;;;11.53;6.30;;;;;;;-143.84;57.64;44969.09;5090383;28;20509;-74
2022/05/26 09:15:40;;;;;;;12.17;6.77;;;;;;;-143.84;55.05;44948.16;5089807;28;20911;-74
2022/05/26 09:18:15;;;;;;;9.70;5.60;;;;;;;-143.84;54.96;44940.53;5090095;28;20440;-74
2022/05/26 09:20:47;;;;;;;13.80;6.70;;;;;;;-143.84;52.47;44971.00;5090061;28;20431;-74
2022/05/26 09:23:23;;;;;;;9.53;4.50;;;;;;;-143.84;52.40;44969.09;5089908;28;20439;-74
2022/05/26 09:25:54;;;;;;;5.67;5.13;;;;;;;-143.84;52.33;44948.16;5089827;28;20487;-74
2022/05/26 09:28:31;;;;;;;15.23;8.70;;;;;;;-143.84;51.72;44944.34;5090057;28;20497;-75
2022/05/26 09:31:21;;;;;;;11.20;8.20;;;;;;;-143.84;51.18;44940.53;5089802;28;20432;-74
2022/05/26 09:34:10;;;;;;;10.63;8.43;;;;;;;-143.84;51.75;44938.63;5091054;28;20436;-74
2022/05/26 09:36:43;;;;;;;20.40;17.00;;;;;;;-143.84;51.64;44936.72;5091350;28;20428;-72
2022/05/26 09:39:11;;;;;;;14.40;9.07;;;;;;;-143.84;52.92;44961.47;5089818;28;20435;-72
2022/05/26 09:41:43;;;;;;;10.40;7.60;;;;;;;-143.84;52.81;44925.31;5089344;28;20815;-72
2022/05/26 09:44:39;;;;;;;12.83;7.93;;;;;;;-143.84;53.12;44969.09;5089143;28;20589;-73
2022/05/26 09:47:26;;;;;;;12.40;7.17;;;;;;;-143.84;53.59;44927.19;5087677;28;20981;-73
2022/05/26 09:49:57;;;;;;;13.63;6.73;;;;;;;-143.84;54.03;44946.25;5089181;28;20436;-73
2022/05/26 09:52:28;;;;;;;12.93;5.77;;;;;;;-143.84;52.91;44934.81;5089139;28;20436;-73
2022/05/26 09:55:19;;;;;;;14.70;8.23;;;;;;;-143.84;52.67;44957.66;5100444;28;20445;-73
2022/05/26 09:57:49;;;;;;;18.17;8.20;;;;;;;-143.84;51.18;44915.78;5109284;28;20447;-73
2022/05/26 10:00:19;;;;;;;32.57;7.60;;;;;;;-143.84;52.47;44959.56;5109296;28;20534;-73
2022/05/26 10:02:48;;;;;;;28.67;8.37;;;;;;;-143.84;51.94;44927.19;5109899;28;20435;-73
2022/05/26 10:05:24;;;;;;;15.40;8.90;;;;;;;-143.84;50.91;44965.28;5109275;28;20446;-73
2022/05/26 10:08:08;;;;;;;13.80;7.20;;;;;;;-143.84;52.20;44955.75;5109348;28;20971;-73
2022/05/26 10:10:41;;;;;;;13.93;8.30;;;;;;;-143.84;51.37;44944.34;5109264;28;20442;-73
2022/05/26 10:13:38;;;;;;;15.77;7.73;;;;;;;-143.84;51.02;44932.91;5109674;28;20443;-74
2022/05/26 10:16:13;;;;;;;23.37;9.20;;;;;;;-143.84;51.76;44969.09;5108601;28;20451;-74
2022/05/26 10:19:06;;;;;;;12.50;7.27;;;;;;;-143.84;51.62;44946.25;5109819;28;20590;-74
2022/05/26 10:21:52;;;;;;;10.53;7.80;;;;;;;-143.84;51.19;44953.88;5109635;28;20496;-74
2022/05/26 10:24:51;;;;;;;9.70;8.17;;;;;;;-143.84;49.47;44951.97;5109279;28;20453;-74
2022/05/26 10:27:40;;;;;;;13.80;7.60;;;;;;;-143.84;50.27;44950.06;5106411;28;20483;-77
2022/05/26 10:30:24;;;;;;;9.27;7.73;;;;;;;-143.84;49.42;44965.28;5110638;28;20771;-77
2022/05/26 10:33:08;;;;;;;13.47;7.83;;;;;;;-143.84;50.89;44917.69;5110723;28;20466;-77
2022/05/26 10:35:42;;;;;;;9.50;7.30;;;;;;;-143.84;51.07;44923.41;5110499;28;21214;-77
2022/05/26 10:38:48;;;;;;;11.50;7.20;;;;;;;-143.84;50.50;44940.53;5109925;28;20823;-77
2022/05/26 10:41:32;;;;;;;14.10;7.23;;;;;;;-143.84;49.82;44938.63;5110489;28;20492;-77
2022/05/26 10:44:05;;;;;;;11.60;7.33;;;;;;;-143.84;50.98;44927.19;5106393;28;20569;-77
2022/05/26 10:46:37;;;;;;;10.90;7.30;;;;;;;-143.84;48.12;44934.81;5098163;28;20854;-77
2022/05/26 10:49:12;;;;;;;10.67;6.60;;;;;;;-143.84;50.65;44934.81;5097527;28;20447;-77
2022/05/26 10:51:43;;;;;;;11.67;6.20;;;;;;;-143.84;48.51;44902.44;5108997;28;20454;-77
2022/05/26 10:54:15;;;;;;;15.13;7.00;;;;;;;-143.84;47.97;44906.25;5104367;28;20442;-77
2022/05/26 10:56:48;;;;;;;11.37;5.60;;;;;;;-143.84;48.43;44917.69;5108098;28;20479;-77
2022/05/26 10:59:21;;;;;;;11.03;3.83;;;;;;;-143.84;47.88;44906.25;5106822;28;20440;-77
2022/05/26 11:01:56;;;;;;;8.23;3.47;;;;;;;-143.84;40.26;44913.88;5109376;28;20468;-77
2022/05/26 11:04:32;;;;;;;5.57;2.63;;;;;;;-143.84;37.98;44898.66;5109624;28;20438;-77
2022/05/26 11:07:05;;;;;;;2.47;2.30;;;;;;;-143.84;36.70;44898.66;5109528;28;20979;-77
2022/05/26 11:09:39;;;;;;;11.60;2.70;;;;;;;-143.84;37.24;44906.25;5093061;28;20509;-76
2022/05/26 11:12:11;;;;;;;4.67;2.43;;;;;;;-143.84;37.04;44902.44;5091235;28;20431;-77
2022/05/26 11:17:42;;;;;;;16.63;3.33;;;;;;;-143.84;35.94;44889.13;5093507;28;20415;-77
2022/05/26 11:20:15;;;;;;;16.30;3.10;;;;;;;-143.84;37.21;44915.78;5093447;28;20447;-76
2022/05/26 11:22:45;;;;;;;7.07;3.33;;;;;;;-143.84;36.19;44877.69;5093738;28;20439;-76
2022/05/26 11:25:15;;;;;;;3.77;2.20;;;;;;;-143.84;35.28;44885.31;5093473;28;20455;-76
2022/05/26 11:27:48;;;;;;;8.50;3.30;;;;;;;-143.84;35.92;44896.75;5093355;28;20518;-76
2022/05/26 11:36:18;;;;;;;8.13;3.47;;;;;;;-143.84;35.45;44883.41;5032176;28;20456;-76
2022/05/26 11:38:48;;;;;;;2.93;2.70;;;;;;;-143.84;34.82;44875.78;5030617;28;20449;-76
2022/05/26 11:41:26;;;;;;;11.77;2.60;;;;;;;-143.84;34.34;44900.53;5061969;28;20493;-76
2022/05/26 11:44:02;;;;;;;10.50;3.23;;;;;;;-143.84;35.87;44870.09;5097776;28;20443;-76
2022/05/26 11:46:56;;;;;;;4.87;2.53;;;;;;;-143.84;36.04;44870.09;5096498;28;20487;-76
2022/05/26 11:50:12;;;;;;;8.60;3.50;;;;;;;-143.84;36.22;44883.41;5098959;28;20443;-76
2022/05/26 11:53:15;;;;;;;3.20;2.90;;;;;;;-143.84;35.15;44900.53;5019579;28;20458;-76
2022/05/26 11:55:58;;;;;;;10.43;3.13;;;;;;;-143.84;35.28;44883.41;5083738;28;21073;-76
2022/05/26 11:58:38;;;;;;;9.37;3.30;;;;;;;-143.84;35.85;44858.66;5098436;28;20853;-76
2022/05/26 12:01:35;;;;;;;5.90;3.30;;;;;;;-143.84;35.71;44868.19;5096618;28;20496;-76
2022/05/26 12:04:25;;;;;;;5.57;3.30;;;;;;;-143.84;36.20;44904.34;5095528;28;20443;-77